createdAt,value
2022-11-06T00:02:06.874Z,11.45
2022-11-06T00:04:34.225Z,16.35
2022-11-06T00:07:01.766Z,12.95
2022-11-06T00:09:29.037Z,11.25
2022-11-06T00:11:56.678Z,13.15
2022-11-06T00:14:23.976Z,12.63
2022-11-06T00:16:51.486Z,15.65
2022-11-06T00:19:18.885Z,11.90
2022-11-06T00:21:46.345Z,12.55
2022-11-06T00:24:15.505Z,14.00
2022-11-06T00:26:43.159Z,12.75
2022-11-06T00:29:13.930Z,18.50
2022-11-06T00:31:41.177Z,17.80
2022-11-06T00:34:09.872Z,14.75
2022-11-06T00:36:37.108Z,11.98
2022-11-06T00:39:05.507Z,9.93
2022-11-06T00:41:32.730Z,16.70
2022-11-06T00:44:01.141Z,13.00
2022-11-06T00:46:28.655Z,21.95
2022-11-06T00:48:56.564Z,14.02
2022-11-06T00:51:27.862Z,14.88
2022-11-06T00:53:57.725Z,17.00
2022-11-06T00:56:25.595Z,17.88
2022-11-06T00:58:53.178Z,13.55
2022-11-06T01:01:22.915Z,15.82
2022-11-06T01:04:01.732Z,10.00
2022-11-06T01:06:31.573Z,14.38
2022-11-06T01:08:59.332Z,16.73
2022-11-06T01:11:52.340Z,28.27
2022-11-06T01:14:21.287Z,15.75
2022-11-06T01:16:49.128Z,16.38
2022-11-06T01:19:17.897Z,13.57
2022-11-06T01:21:46.636Z,13.85
2022-11-06T01:24:19.115Z,17.00
2022-11-06T01:27:11.948Z,17.33
2022-11-06T01:29:34.290Z,9.55
2022-11-06T01:32:01.674Z,15.75
2022-11-06T01:34:29.074Z,13.50
2022-11-06T01:36:56.315Z,14.57
2022-11-06T01:39:23.601Z,13.43
2022-11-06T01:41:52.991Z,13.70
2022-11-06T01:44:35.495Z,10.10
2022-11-06T01:47:05.690Z,12.00
2022-11-06T01:52:05.277Z,11.13
2022-11-06T01:54:34.861Z,13.73
2022-11-06T01:57:03.624Z,9.75
2022-11-06T01:59:33.107Z,14.23
2022-11-06T02:02:00.515Z,8.32
2022-11-06T02:04:32.022Z,9.77
2022-11-06T02:07:01.152Z,12.35
2022-11-06T02:09:30.273Z,11.00
2022-11-06T02:12:22.502Z,10.57
2022-11-06T02:15:04.261Z,11.27
2022-11-06T02:17:59.844Z,12.25
2022-11-06T02:20:41.386Z,11.50
2022-11-06T02:23:33.267Z,18.98
2022-11-06T02:26:13.513Z,14.45
2022-11-06T02:28:48.100Z,12.93
2022-11-06T02:31:20.508Z,11.32
2022-11-06T02:33:52.392Z,14.15
2022-11-06T02:36:25.929Z,10.93
2022-11-06T02:38:59.278Z,12.65
2022-11-06T02:41:31.670Z,9.60
2022-11-06T02:43:59.481Z,15.63
2022-11-06T02:46:39.833Z,15.88
2022-11-06T02:49:13.962Z,13.48
2022-11-06T02:51:46.422Z,11.90
2022-11-06T02:54:14.567Z,10.00
2022-11-06T02:56:44.987Z,11.85
2022-11-06T02:59:15.321Z,13.25
2022-11-06T03:02:03.657Z,9.07
2022-11-06T03:04:34.812Z,10.98
2022-11-06T03:07:09.279Z,13.48
2022-11-06T03:09:37.059Z,13.63
2022-11-06T03:12:25.535Z,12.02
2022-11-06T03:15:15.142Z,13.75
2022-11-06T03:17:50.921Z,9.50
2022-11-06T03:20:21.968Z,10.60
2022-11-06T03:23:02.325Z,16.48
2022-11-06T03:25:36.752Z,11.65
2022-11-06T03:28:11.044Z,16.50
2022-11-06T03:30:48.523Z,13.23
2022-11-06T03:33:19.771Z,11.35
2022-11-06T03:35:58.215Z,9.90
2022-11-06T03:38:32.318Z,9.75
2022-11-06T03:41:11.384Z,14.45
2022-11-06T03:43:42.603Z,12.57
2022-11-06T03:46:13.916Z,11.70
2022-11-06T03:48:44.685Z,11.43
2022-11-06T03:51:22.022Z,12.63
2022-11-06T03:54:15.494Z,13.60
2022-11-06T03:56:55.399Z,14.23
2022-11-06T03:59:25.348Z,19.98
2022-11-06T04:01:54.169Z,11.68
2022-11-06T04:04:35.793Z,10.07
2022-11-06T04:07:09.711Z,12.32
2022-11-06T04:09:59.744Z,13.65
2022-11-06T04:12:47.094Z,11.68
2022-11-06T04:15:16.959Z,12.95
2022-11-06T04:17:44.318Z,12.45
2022-11-06T04:20:36.285Z,14.75
2022-11-06T04:23:16.424Z,17.15
2022-11-06T04:26:39.138Z,10.02
2022-11-06T04:29:32.754Z,9.05
2022-11-06T04:32:28.801Z,9.88
2022-11-06T04:35:14.231Z,16.70
2022-11-06T04:37:48.315Z,14.23
2022-11-06T04:40:25.308Z,13.70
2022-11-06T04:42:52.577Z,11.20
2022-11-06T04:45:38.834Z,11.90
2022-11-06T04:48:08.241Z,10.55
2022-11-06T04:50:47.682Z,11.48
2022-11-06T04:53:17.132Z,12.48
2022-11-06T04:55:53.526Z,11.63
2022-11-06T04:58:20.906Z,10.98
2022-11-06T05:00:50.199Z,8.27
2022-11-06T05:03:18.164Z,15.27
2022-11-06T05:05:45.602Z,10.38
2022-11-06T05:08:16.195Z,10.93
2022-11-06T05:10:44.345Z,10.40
2022-11-06T05:13:11.970Z,16.25
2022-11-06T05:15:39.509Z,15.10
2022-11-06T05:18:07.272Z,9.70
2022-11-06T05:20:34.813Z,14.75
2022-11-06T05:23:02.086Z,11.27
2022-11-06T05:25:32.341Z,9.30
2022-11-06T05:28:00.535Z,14.95
2022-11-06T05:30:28.135Z,18.65
2022-11-06T05:32:55.483Z,11.95
2022-11-06T05:35:22.745Z,8.35
2022-11-06T05:37:49.975Z,9.60
2022-11-06T05:40:17.547Z,13.43
2022-11-06T05:42:44.917Z,13.27
2022-11-06T05:45:12.511Z,13.50
2022-11-06T05:47:41.727Z,13.63
2022-11-06T05:50:09.813Z,13.23
2022-11-06T05:52:37.906Z,13.32
2022-11-06T05:55:11.609Z,9.57
2022-11-06T05:57:40.685Z,15.00
2022-11-06T06:00:09.085Z,9.38
2022-11-06T06:02:40.001Z,12.00
2022-11-06T06:05:08.073Z,12.93
2022-11-06T06:07:35.655Z,10.70
2022-11-06T06:10:03.291Z,17.50
2022-11-06T06:12:30.542Z,9.90
2022-11-06T06:14:57.884Z,11.98
2022-11-06T06:17:25.286Z,9.48
2022-11-06T06:19:52.562Z,14.60
2022-11-06T06:22:19.792Z,9.32
2022-11-06T06:24:47.249Z,13.77
2022-11-06T06:27:14.608Z,8.55
2022-11-06T06:29:41.863Z,13.50
2022-11-06T06:32:09.230Z,9.85
2022-11-06T06:34:36.471Z,11.27
2022-11-06T06:37:03.704Z,13.38
2022-11-06T06:39:31.186Z,13.63
2022-11-06T06:41:58.827Z,14.52
2022-11-06T06:44:26.209Z,17.00
2022-11-06T06:46:53.558Z,12.68
2022-11-06T06:49:20.796Z,12.10
2022-11-06T06:51:49.036Z,14.45
2022-11-06T06:54:16.511Z,10.57
2022-11-06T06:56:43.871Z,12.88
2022-11-06T06:59:11.263Z,12.45
2022-11-06T07:01:38.819Z,10.73
2022-11-06T07:04:06.535Z,10.38
2022-11-06T07:06:34.901Z,12.50
2022-11-06T07:09:02.237Z,8.18
2022-11-06T07:11:29.665Z,12.20
2022-11-06T07:13:58.050Z,10.88
2022-11-06T07:16:27.438Z,11.30
2022-11-06T07:18:54.762Z,10.90
2022-11-06T07:21:22.235Z,11.43
2022-11-06T07:23:49.511Z,11.45
2022-11-06T07:26:17.049Z,10.80
2022-11-06T07:28:44.270Z,13.43
2022-11-06T07:31:14.836Z,11.00
2022-11-06T07:33:42.233Z,11.75
2022-11-06T07:36:11.877Z,11.20
2022-11-06T07:38:40.964Z,12.35
2022-11-06T07:41:13.433Z,13.98
2022-11-06T07:43:41.572Z,17.27
2022-11-06T07:46:11.354Z,15.98
2022-11-06T07:48:39.587Z,14.57
2022-11-06T07:51:09.284Z,11.55
2022-11-06T07:53:37.110Z,9.25
2022-11-06T07:56:04.685Z,7.47
2022-11-06T07:58:33.319Z,12.38
2022-11-06T08:01:00.985Z,12.52
2022-11-06T08:03:30.283Z,10.90
2022-11-06T08:05:59.361Z,11.60
2022-11-06T08:08:27.856Z,12.23
2022-11-06T08:10:55.154Z,12.68
2022-11-06T08:13:22.335Z,13.45
2022-11-06T08:15:49.910Z,13.95
2022-11-06T08:18:18.553Z,11.73
2022-11-06T08:20:45.955Z,12.05
2022-11-06T08:23:13.664Z,10.88
2022-11-06T08:25:41.015Z,12.48
2022-11-06T08:28:09.464Z,10.68
2022-11-06T08:30:36.918Z,11.30
2022-11-06T08:33:07.524Z,14.68
2022-11-06T08:35:38.041Z,14.52
2022-11-06T08:38:05.294Z,13.10
2022-11-06T08:40:32.933Z,9.70
2022-11-06T08:43:01.819Z,17.42
2022-11-06T08:45:29.372Z,13.30
2022-11-06T08:48:00.992Z,12.75
2022-11-06T08:50:28.660Z,10.75
2022-11-06T08:53:01.288Z,11.35
2022-11-06T08:55:28.963Z,13.32
2022-11-06T08:57:56.341Z,9.50
2022-11-06T09:00:23.915Z,12.90
2022-11-06T09:02:51.303Z,10.40
2022-11-06T09:05:18.555Z,15.95
2022-11-06T09:07:46.276Z,10.77
2022-11-06T09:10:14.176Z,11.82
2022-11-06T09:12:41.555Z,11.05
2022-11-06T09:15:10.236Z,11.55
2022-11-06T09:17:47.806Z,15.07
2022-11-06T09:20:16.376Z,11.23
2022-11-06T09:22:43.599Z,16.63
2022-11-06T09:25:11.346Z,15.48
2022-11-06T09:27:43.300Z,15.75
2022-11-06T09:30:12.469Z,10.77
2022-11-06T09:32:45.687Z,17.90
2022-11-06T09:35:13.313Z,10.38
2022-11-06T09:37:40.854Z,15.23
2022-11-06T09:40:32.953Z,16.45
2022-11-06T09:43:27.275Z,13.15
2022-11-06T09:46:18.077Z,17.65
2022-11-06T09:48:49.044Z,12.77
2022-11-06T09:51:34.092Z,15.50
2022-11-06T09:54:22.006Z,13.45
2022-11-06T09:56:56.314Z,12.10
2022-11-06T09:59:24.651Z,11.35
2022-11-06T10:01:55.354Z,9.15
2022-11-06T10:05:07.031Z,14.68
2022-11-06T10:07:36.885Z,10.75
2022-11-06T10:10:07.638Z,11.38
2022-11-06T10:12:40.816Z,10.02
2022-11-06T10:15:22.637Z,14.13
2022-11-06T10:18:01.647Z,13.93
2022-11-06T10:20:39.318Z,12.43
2022-11-06T10:23:18.796Z,12.05
2022-11-06T10:25:51.931Z,14.90
2022-11-06T10:28:47.140Z,16.20
2022-11-06T10:31:36.727Z,17.50
2022-11-06T10:34:09.908Z,11.85
2022-11-06T10:36:48.733Z,14.50
2022-11-06T10:39:27.190Z,15.55
2022-11-06T10:42:05.207Z,12.90
2022-11-06T10:44:37.780Z,13.80
2022-11-06T10:47:20.176Z,11.70
2022-11-06T10:50:08.422Z,17.77
2022-11-06T10:52:55.299Z,17.92
2022-11-06T10:55:31.588Z,17.65
2022-11-06T10:58:22.749Z,12.88
2022-11-06T11:00:53.115Z,15.55
2022-11-06T11:03:26.697Z,16.92
2022-11-06T11:05:55.640Z,17.17
2022-11-06T11:08:47.026Z,11.38
2022-11-06T11:11:14.255Z,14.18
2022-11-06T11:13:46.273Z,15.65
2022-11-06T11:16:28.617Z,14.43
2022-11-06T11:19:15.321Z,15.38
2022-11-06T11:22:00.200Z,15.93
2022-11-06T11:24:27.773Z,16.33
2022-11-06T11:27:03.092Z,12.38
2022-11-06T11:29:45.277Z,20.02
2022-11-06T11:32:15.097Z,15.27
2022-11-06T11:34:56.608Z,15.20
2022-11-06T11:37:28.191Z,16.10
2022-11-06T11:39:56.012Z,13.80
2022-11-06T11:42:26.246Z,13.63
2022-11-06T11:45:13.922Z,12.02
2022-11-06T11:47:46.912Z,12.98
2022-11-06T11:50:18.572Z,11.60
2022-11-06T11:52:47.381Z,13.00
2022-11-06T11:55:20.300Z,10.77
2022-11-06T11:57:50.129Z,13.38
2022-11-06T12:00:19.800Z,11.48
2022-11-06T12:02:53.478Z,12.00
2022-11-06T12:05:28.626Z,14.85
2022-11-06T12:07:57.565Z,13.65
2022-11-06T12:10:35.116Z,11.13
2022-11-06T12:13:07.617Z,16.17
2022-11-06T12:15:40.894Z,13.38
2022-11-06T12:18:21.737Z,13.77
2022-11-06T12:21:21.270Z,13.80
2022-11-06T12:23:54.309Z,14.25
2022-11-06T12:26:27.570Z,15.20
2022-11-06T12:29:05.876Z,13.25
2022-11-06T12:31:43.179Z,13.23
2022-11-06T12:34:25.406Z,11.38
2022-11-06T12:37:26.035Z,16.15
2022-11-06T12:40:03.532Z,17.10
2022-11-06T12:42:32.330Z,15.27
2022-11-06T12:44:59.884Z,14.68
2022-11-06T12:47:46.323Z,16.20
2022-11-06T12:50:27.095Z,12.15
2022-11-06T12:53:18.727Z,18.92
2022-11-06T12:56:01.617Z,13.52
2022-11-06T12:58:37.776Z,17.48
2022-11-06T13:01:27.761Z,17.10
2022-11-06T13:04:23.180Z,15.05
2022-11-06T13:07:23.562Z,15.48
2022-11-06T13:10:23.285Z,14.23
2022-11-06T13:12:56.614Z,14.98
2022-11-06T13:15:45.288Z,18.65
2022-11-06T13:18:22.835Z,16.10
2022-11-06T13:21:21.900Z,15.43
2022-11-06T13:23:51.331Z,11.30
2022-11-06T13:26:27.851Z,13.68
2022-11-06T13:29:02.521Z,15.00
2022-11-06T13:31:40.199Z,15.02
2022-11-06T13:34:24.929Z,13.90
2022-11-06T13:36:52.962Z,13.23
2022-11-06T13:39:29.967Z,15.43
2022-11-06T13:41:57.954Z,13.07
2022-11-06T13:44:25.597Z,11.93
2022-11-06T13:47:04.894Z,14.30
2022-11-06T13:50:01.257Z,14.93
2022-11-06T13:52:39.606Z,13.45
2022-11-06T13:55:57.178Z,13.40
2022-11-06T13:58:31.958Z,14.30
2022-11-06T14:01:04.915Z,12.75
2022-11-06T14:04:06.806Z,14.70
2022-11-06T14:06:35.485Z,16.52
2022-11-06T14:09:21.315Z,13.02
2022-11-06T14:11:54.814Z,16.75
2022-11-06T14:14:21.976Z,15.80
2022-11-06T14:17:17.040Z,14.10
2022-11-06T14:19:51.088Z,13.68
2022-11-06T14:22:30.596Z,14.82
2022-11-06T14:25:01.582Z,13.82
2022-11-06T14:27:29.648Z,14.15
2022-11-06T14:30:14.980Z,13.20
2022-11-06T14:32:47.607Z,12.63
2022-11-06T14:35:31.057Z,15.82
2022-11-06T14:38:13.467Z,13.68
2022-11-06T14:40:40.979Z,12.27
2022-11-06T14:43:24.577Z,15.43
2022-11-06T14:46:20.626Z,14.32
2022-11-06T14:48:52.127Z,14.57
2022-11-06T14:51:26.378Z,12.90
2022-11-06T14:53:59.383Z,12.13
2022-11-06T14:56:39.734Z,11.45
2022-11-06T15:01:37.374Z,13.73
2022-11-06T15:04:15.772Z,11.40
2022-11-06T15:06:46.027Z,15.25
2022-11-06T15:11:47.931Z,11.25
2022-11-06T15:14:15.221Z,14.77
2022-11-06T15:16:49.775Z,9.40
2022-11-06T15:19:20.582Z,10.70
2022-11-06T15:22:03.475Z,12.40
2022-11-06T15:24:53.867Z,12.20
2022-11-06T15:27:31.150Z,10.85
2022-11-06T15:30:00.854Z,10.38
2022-11-06T15:32:30.666Z,11.02
2022-11-06T15:35:18.382Z,10.88
2022-11-06T15:37:56.074Z,10.50
2022-11-06T15:40:31.655Z,8.30
2022-11-06T15:43:02.385Z,9.25
2022-11-06T15:45:30.073Z,9.50
2022-11-06T15:48:00.064Z,11.43
2022-11-06T15:53:16.092Z,11.23
2022-11-06T15:55:50.916Z,7.95
2022-11-06T15:58:18.122Z,9.38
2022-11-06T16:00:46.002Z,7.63
2022-11-06T16:03:16.031Z,9.05
2022-11-06T16:08:13.022Z,8.35
2022-11-06T16:10:43.698Z,9.85
2022-11-06T16:13:13.040Z,11.20
2022-11-06T16:15:43.837Z,9.68
2022-11-06T16:18:26.103Z,9.30
2022-11-06T16:20:57.411Z,8.68
2022-11-06T16:23:34.834Z,13.15
2022-11-06T16:26:11.735Z,12.27
2022-11-06T16:28:43.795Z,12.05
2022-11-06T16:31:15.942Z,10.68
2022-11-06T16:33:59.960Z,11.68
2022-11-06T16:36:29.672Z,12.30
2022-11-06T16:39:16.786Z,11.93
2022-11-06T16:42:17.498Z,13.60
2022-11-06T16:44:46.432Z,13.52
2022-11-06T16:47:22.380Z,13.93
2022-11-06T16:49:57.356Z,15.45
2022-11-06T16:52:34.885Z,11.70
2022-11-06T16:55:03.221Z,14.73
2022-11-06T16:57:45.644Z,12.07
2022-11-06T17:00:31.127Z,14.45
2022-11-06T17:03:07.451Z,14.02
2022-11-06T17:05:36.958Z,15.10
2022-11-06T17:08:29.918Z,12.32
2022-11-06T17:10:58.447Z,13.88
2022-11-06T17:13:32.052Z,12.70
2022-11-06T17:16:01.657Z,12.63
2022-11-06T17:18:31.073Z,10.20
2022-11-06T17:21:00.932Z,11.88
2022-11-06T17:23:29.289Z,12.63
2022-11-06T17:25:59.955Z,16.17
2022-11-06T17:28:28.242Z,15.07
2022-11-06T17:30:55.896Z,11.23
2022-11-06T17:33:23.189Z,12.35
2022-11-06T17:35:50.631Z,13.70
2022-11-06T17:38:18.218Z,13.07
2022-11-06T17:40:45.830Z,12.18
2022-11-06T17:43:13.869Z,13.55
2022-11-06T17:45:43.194Z,10.68
2022-11-06T17:48:10.482Z,14.27
2022-11-06T17:50:56.347Z,11.05
2022-11-06T17:53:23.826Z,19.13
2022-11-06T17:55:51.145Z,22.13
2022-11-06T17:58:18.557Z,14.73
2022-11-06T18:00:46.492Z,14.52
2022-11-06T18:03:20.809Z,14.50
2022-11-06T18:05:48.475Z,13.40
2022-11-06T18:08:16.667Z,14.82
2022-11-06T18:10:53.017Z,14.55
2022-11-06T18:13:20.253Z,16.17
2022-11-06T18:15:47.636Z,18.00
2022-11-06T18:18:15.479Z,11.70
2022-11-06T18:20:47.391Z,16.98
2022-11-06T18:23:15.879Z,12.00
2022-11-06T18:25:43.469Z,10.98
2022-11-06T18:28:10.783Z,14.77
2022-11-06T18:30:38.789Z,10.75
2022-11-06T18:33:06.119Z,16.10
2022-11-06T18:35:33.335Z,16.88
2022-11-06T18:38:01.372Z,17.33
2022-11-06T18:40:28.641Z,15.52
2022-11-06T18:42:55.910Z,19.48
2022-11-06T18:45:23.183Z,16.70
2022-11-06T18:47:50.971Z,19.33
2022-11-06T18:50:18.340Z,17.33
2022-11-06T18:52:57.497Z,21.80
2022-11-06T18:55:25.477Z,26.02
2022-11-06T18:57:53.453Z,25.42
2022-11-06T19:00:21.296Z,25.17
2022-11-06T19:02:51.458Z,26.65
2022-11-06T19:05:19.164Z,22.05
2022-11-06T19:07:51.157Z,16.98
2022-11-06T19:10:19.256Z,15.93
2022-11-06T19:12:46.449Z,17.83
2022-11-06T19:15:13.717Z,22.23
2022-11-06T19:17:40.884Z,22.10
2022-11-06T19:20:10.828Z,16.65
2022-11-06T19:22:41.113Z,22.15
2022-11-06T19:25:08.799Z,19.83
2022-11-06T19:27:36.191Z,17.77
2022-11-06T19:30:03.635Z,17.80
2022-11-06T19:32:30.851Z,15.13
2022-11-06T19:34:58.166Z,17.55
2022-11-06T19:37:25.423Z,15.55
2022-11-06T19:39:53.389Z,15.02
2022-11-06T19:42:20.741Z,14.05
2022-11-06T19:44:48.204Z,17.48
2022-11-06T19:47:15.562Z,17.10
2022-11-06T19:49:43.001Z,17.42
2022-11-06T19:52:42.973Z,15.77
2022-11-06T19:55:26.142Z,15.93
2022-11-06T19:57:57.431Z,14.00
2022-11-06T20:00:24.598Z,23.00
2022-11-06T20:02:51.878Z,17.08
2022-11-06T20:05:19.350Z,21.48
2022-11-06T20:07:46.623Z,27.20
2022-11-06T20:10:13.925Z,34.47
2022-11-06T20:12:41.164Z,29.42
2022-11-06T20:15:08.827Z,26.17
2022-11-06T20:17:36.238Z,19.23
2022-11-06T20:20:03.677Z,15.23
2022-11-06T20:22:30.928Z,26.50
2022-11-06T20:24:58.206Z,24.25
2022-11-06T20:27:25.469Z,18.92
2022-11-06T20:29:52.828Z,16.23
2022-11-06T20:32:20.140Z,19.85
2022-11-06T20:34:47.773Z,21.77
2022-11-06T20:37:15.011Z,17.40
2022-11-06T20:39:42.445Z,17.50
2022-11-06T20:42:09.657Z,13.90
2022-11-06T20:44:37.258Z,11.45
2022-11-06T20:47:04.621Z,19.10
2022-11-06T20:49:31.869Z,15.70
2022-11-06T20:52:15.468Z,17.88
2022-11-06T20:54:47.177Z,16.40
2022-11-06T20:57:17.621Z,26.48
2022-11-06T20:59:44.996Z,18.65
2022-11-06T21:02:12.371Z,15.60
2022-11-06T21:04:40.000Z,18.13
2022-11-06T21:07:07.289Z,14.40
2022-11-06T21:09:34.479Z,16.60
2022-11-06T21:12:01.756Z,19.58
2022-11-06T21:14:29.236Z,17.25
2022-11-06T21:16:57.252Z,17.60
2022-11-06T21:19:24.693Z,23.23
2022-11-06T21:21:52.323Z,20.83
2022-11-06T21:24:19.728Z,19.50
2022-11-06T21:26:47.006Z,24.60
2022-11-06T21:29:14.457Z,16.02
2022-11-06T21:31:48.552Z,16.27
2022-11-06T21:34:17.484Z,19.05
2022-11-06T21:36:48.168Z,18.27
2022-11-06T21:39:18.453Z,23.35
2022-11-06T21:41:46.667Z,17.23
2022-11-06T21:44:16.404Z,16.70
2022-11-06T21:46:45.709Z,25.73
2022-11-06T21:49:13.885Z,22.33
2022-11-06T21:51:41.674Z,25.70
2022-11-06T21:54:30.340Z,19.40
2022-11-06T21:56:57.672Z,19.90
2022-11-06T21:59:27.007Z,16.60
2022-11-06T22:01:54.660Z,25.60
2022-11-06T22:04:22.452Z,20.33
2022-11-06T22:06:49.643Z,19.05
2022-11-06T22:09:21.941Z,19.27
2022-11-06T22:11:51.919Z,20.50
2022-11-06T22:14:19.317Z,22.42
2022-11-06T22:16:47.816Z,16.75
2022-11-06T22:19:16.155Z,18.80
2022-11-06T22:21:43.694Z,21.55
2022-11-06T22:24:12.853Z,21.38
2022-11-06T22:26:40.647Z,26.52
2022-11-06T22:29:10.924Z,23.52
2022-11-06T22:31:38.549Z,22.55
2022-11-06T22:34:05.784Z,27.38
2022-11-06T22:36:33.066Z,21.38
2022-11-06T22:39:04.705Z,18.70
2022-11-06T22:41:32.204Z,18.40
2022-11-06T22:43:59.708Z,10.48
2022-11-06T22:46:28.979Z,19.95
2022-11-06T22:48:57.131Z,19.42
2022-11-06T22:51:29.222Z,18.92
2022-11-06T22:53:56.631Z,27.33
2022-11-06T22:56:25.032Z,24.25
2022-11-06T22:58:56.228Z,25.45
2022-11-06T23:01:25.449Z,14.75
2022-11-06T23:03:56.930Z,27.30
2022-11-06T23:06:25.659Z,24.75
2022-11-06T23:08:53.464Z,24.65
2022-11-06T23:11:21.809Z,23.25
2022-11-06T23:13:49.034Z,25.65
2022-11-06T23:16:50.357Z,25.80
2022-11-06T23:19:19.914Z,27.50
2022-11-06T23:21:47.243Z,23.30
2022-11-06T23:24:14.706Z,21.33
2022-11-06T23:26:43.683Z,28.45
2022-11-06T23:29:11.274Z,26.77
2022-11-06T23:31:38.523Z,23.83
2022-11-06T23:34:05.904Z,31.50
2022-11-06T23:36:33.232Z,29.50
2022-11-06T23:39:00.533Z,29.65
2022-11-06T23:41:43.483Z,20.40
2022-11-06T23:44:30.869Z,22.27
2022-11-06T23:46:58.279Z,22.55
2022-11-06T23:49:25.504Z,20.13
2022-11-06T23:51:53.035Z,25.30
2022-11-06T23:54:20.695Z,28.23
2022-11-06T23:56:47.889Z,31.75
2022-11-06T23:59:15.222Z,29.67
